createdAt,value
2022-11-05T00:02:07.301Z,20.30
2022-11-05T00:07:39.628Z,18.70
2022-11-05T00:13:01.128Z,19.60
2022-11-05T00:18:04.017Z,17.20
2022-11-05T00:23:25.502Z,17.00
2022-11-05T00:28:29.011Z,21.00
2022-11-05T00:33:32.371Z,22.60
2022-11-05T00:38:35.379Z,19.30
2022-11-05T00:43:56.944Z,21.20
2022-11-05T00:49:18.651Z,19.20
2022-11-05T00:54:21.628Z,21.50
2022-11-05T00:59:24.442Z,19.90
2022-11-05T01:04:27.269Z,18.90
2022-11-05T01:09:30.125Z,20.10
2022-11-05T01:14:32.992Z,19.70
2022-11-05T01:19:36.138Z,21.40
2022-11-05T01:24:39.035Z,19.90
2022-11-05T01:29:42.422Z,20.10
2022-11-05T01:34:45.274Z,22.60
2022-11-05T01:39:48.161Z,20.60
2022-11-05T01:45:10.625Z,18.20
2022-11-05T01:50:30.889Z,20.20
2022-11-05T01:55:36.977Z,18.60
2022-11-05T02:00:41.315Z,21.60
2022-11-05T02:05:44.208Z,20.90
2022-11-05T02:10:47.144Z,19.50
2022-11-05T02:16:03.494Z,19.30
2022-11-05T02:21:25.193Z,19.20
2022-11-05T02:27:03.628Z,16.70
2022-11-05T02:32:18.723Z,19.10
2022-11-05T02:37:33.525Z,20.30
2022-11-05T02:42:56.802Z,19.70
2022-11-05T02:48:36.851Z,18.60
2022-11-05T02:53:59.553Z,17.90
2022-11-05T02:59:02.374Z,20.20
2022-11-05T03:04:08.159Z,19.30
2022-11-05T03:09:45.104Z,22.20
2022-11-05T03:15:40.590Z,20.20
2022-11-05T03:21:11.542Z,20.60
2022-11-05T03:26:21.460Z,19.10
2022-11-05T03:31:24.459Z,19.20
2022-11-05T03:36:39.669Z,21.20
2022-11-05T03:41:45.684Z,23.90
2022-11-05T03:46:49.491Z,19.60
2022-11-05T03:52:09.810Z,20.30
2022-11-05T03:57:33.781Z,19.40
2022-11-05T04:02:37.302Z,23.60
2022-11-05T04:07:58.993Z,22.70
2022-11-05T04:13:20.571Z,19.70
2022-11-05T04:18:23.410Z,23.70
2022-11-05T04:23:45.022Z,19.50
2022-11-05T04:29:07.942Z,21.60
2022-11-05T04:34:11.025Z,21.60
2022-11-05T04:39:13.788Z,21.60
2022-11-05T04:44:16.899Z,21.40
2022-11-05T04:49:19.834Z,22.90
2022-11-05T04:54:22.644Z,22.40
2022-11-05T04:59:25.470Z,22.40
2022-11-05T05:04:28.460Z,20.30
2022-11-05T05:09:31.215Z,23.80
2022-11-05T05:14:34.589Z,23.40
2022-11-05T05:19:57.312Z,23.30
2022-11-05T05:25:00.111Z,25.30
2022-11-05T05:30:03.553Z,24.20
2022-11-05T05:35:06.941Z,25.50
2022-11-05T05:40:11.924Z,22.50
2022-11-05T05:45:14.703Z,21.30
2022-11-05T05:50:17.668Z,26.10
2022-11-05T05:55:21.755Z,24.30
2022-11-05T06:00:24.494Z,24.40
2022-11-05T06:05:27.304Z,22.00
2022-11-05T06:10:30.183Z,24.10
2022-11-05T06:15:35.902Z,21.00
2022-11-05T06:20:39.100Z,24.40
2022-11-05T06:25:41.894Z,24.60
2022-11-05T06:30:51.938Z,23.60
2022-11-05T06:35:54.875Z,27.00
2022-11-05T06:41:03.299Z,22.10
2022-11-05T06:46:10.178Z,26.20
2022-11-05T06:51:12.961Z,25.40
2022-11-05T06:56:15.775Z,25.00
2022-11-05T07:01:18.910Z,22.10
2022-11-05T07:06:22.012Z,22.20
2022-11-05T07:11:24.926Z,25.10
2022-11-05T07:16:27.749Z,23.90
2022-11-05T07:21:30.553Z,23.20
2022-11-05T07:26:34.774Z,23.30
2022-11-05T07:31:38.153Z,27.00
2022-11-05T07:36:41.048Z,24.90
2022-11-05T07:41:46.021Z,24.80
2022-11-05T07:46:50.142Z,23.50
2022-11-05T07:51:53.656Z,24.10
2022-11-05T07:56:56.445Z,24.30
2022-11-05T08:01:59.437Z,26.30
2022-11-05T08:07:02.566Z,28.30
2022-11-05T08:12:06.325Z,25.90
2022-11-05T08:17:09.147Z,27.30
2022-11-05T08:22:11.923Z,25.30
2022-11-05T08:27:14.790Z,25.60
2022-11-05T08:32:18.287Z,28.20
2022-11-05T08:37:21.035Z,27.40
2022-11-05T08:42:24.409Z,25.20
2022-11-05T08:47:27.329Z,27.20
2022-11-05T08:52:30.090Z,23.10
2022-11-05T08:57:33.955Z,25.00
2022-11-05T09:02:36.847Z,25.60
2022-11-05T09:07:39.630Z,27.70
2022-11-05T09:12:42.446Z,31.20
2022-11-05T09:17:45.317Z,28.10
2022-11-05T09:22:48.122Z,28.30
2022-11-05T09:27:51.019Z,29.10
2022-11-05T09:32:53.824Z,30.60
2022-11-05T09:38:00.764Z,29.00
2022-11-05T09:43:05.767Z,28.80
2022-11-05T09:48:12.521Z,31.00
2022-11-05T09:53:17.729Z,32.30
2022-11-05T09:58:59.924Z,33.60
2022-11-05T10:04:08.701Z,27.90
2022-11-05T10:09:45.307Z,30.80
2022-11-05T10:15:03.301Z,30.60
2022-11-05T10:20:37.676Z,33.10
2022-11-05T10:25:45.986Z,31.20
2022-11-05T10:30:52.843Z,35.60
2022-11-05T10:35:59.696Z,35.20
2022-11-05T10:41:14.762Z,31.10
2022-11-05T10:46:34.418Z,34.40
2022-11-05T10:51:37.833Z,32.50
2022-11-05T10:56:41.067Z,35.60
2022-11-05T11:01:44.038Z,33.50
2022-11-05T11:06:53.219Z,36.90
2022-11-05T11:12:07.359Z,39.40
2022-11-05T11:17:26.614Z,38.20
2022-11-05T11:22:29.799Z,36.80
2022-11-05T11:27:33.674Z,35.10
2022-11-05T11:32:38.838Z,34.30
2022-11-05T11:37:42.328Z,37.50
2022-11-05T11:42:48.145Z,35.80
2022-11-05T11:47:51.596Z,36.10
2022-11-05T11:52:54.413Z,38.80
2022-11-05T11:58:15.410Z,35.80
2022-11-05T12:03:51.747Z,38.60
2022-11-05T12:09:11.681Z,38.10
2022-11-05T12:14:26.941Z,39.90
2022-11-05T12:20:35.910Z,46.10
2022-11-05T12:26:06.768Z,48.70
2022-11-05T12:31:22.495Z,54.80
2022-11-05T12:37:07.890Z,41.30
2022-11-05T12:42:37.640Z,39.60
2022-11-05T12:48:17.319Z,38.50
2022-11-05T12:53:30.238Z,37.60
2022-11-05T12:58:37.501Z,34.70
2022-11-05T13:04:01.489Z,34.70
2022-11-05T13:09:17.889Z,34.90
2022-11-05T13:14:45.673Z,33.50
2022-11-05T13:20:16.056Z,33.30
2022-11-05T13:25:27.345Z,39.40
2022-11-05T13:30:52.516Z,36.80
2022-11-05T13:36:48.899Z,35.50
2022-11-05T13:42:25.799Z,33.20
2022-11-05T13:47:48.662Z,37.60
2022-11-05T13:53:10.341Z,34.40
2022-11-05T13:58:38.135Z,35.50
2022-11-05T14:03:47.499Z,35.50
2022-11-05T14:08:50.394Z,38.80
2022-11-05T14:14:00.993Z,34.60
2022-11-05T14:19:19.115Z,32.00
2022-11-05T14:24:21.953Z,31.90
2022-11-05T14:29:24.949Z,31.70
2022-11-05T14:35:19.455Z,31.20
2022-11-05T14:40:22.193Z,34.30
2022-11-05T14:45:39.005Z,32.40
2022-11-05T14:50:43.235Z,33.70
2022-11-05T14:55:46.019Z,32.70
2022-11-05T15:00:49.259Z,31.40
2022-11-05T15:05:52.415Z,26.40
2022-11-05T15:11:32.987Z,27.50
2022-11-05T15:16:52.464Z,26.00
2022-11-05T15:21:59.001Z,25.80
2022-11-05T15:28:14.083Z,24.00
2022-11-05T15:33:19.946Z,27.00
2022-11-05T15:38:28.311Z,27.90
2022-11-05T15:43:31.958Z,24.80
2022-11-05T15:48:35.024Z,22.80
2022-11-05T15:59:31.723Z,24.10
2022-11-05T16:04:34.938Z,23.10
2022-11-05T16:09:43.886Z,23.40
2022-11-05T16:14:58.439Z,25.60
2022-11-05T16:20:01.252Z,25.30
2022-11-05T16:25:29.037Z,24.20
2022-11-05T16:30:31.903Z,26.40
2022-11-05T16:35:34.718Z,25.90
2022-11-05T16:40:37.512Z,30.80
2022-11-05T16:45:41.657Z,30.00
2022-11-05T16:50:44.829Z,29.00
2022-11-05T16:55:47.740Z,32.80
2022-11-05T17:00:52.802Z,34.00
2022-11-05T17:05:55.662Z,35.40
2022-11-05T17:10:58.494Z,31.40
2022-11-05T17:16:02.093Z,32.40
2022-11-05T17:21:07.645Z,33.90
2022-11-05T17:26:12.389Z,38.90
2022-11-05T17:31:19.058Z,37.60
2022-11-05T17:36:22.062Z,34.20
2022-11-05T17:41:25.033Z,33.80
2022-11-05T17:46:27.893Z,39.70
2022-11-05T17:51:30.665Z,38.10
2022-11-05T17:56:40.281Z,38.50
2022-11-05T18:01:46.414Z,39.70
2022-11-05T18:06:49.439Z,38.70
2022-11-05T18:11:52.218Z,43.60
2022-11-05T18:17:00.206Z,38.70
2022-11-05T18:22:03.059Z,36.10
2022-11-05T18:27:05.878Z,37.90
2022-11-05T18:32:09.095Z,34.00
2022-11-05T18:37:11.896Z,36.30
2022-11-05T18:42:14.685Z,35.30
2022-11-05T18:47:17.435Z,39.00
2022-11-05T18:52:20.189Z,37.10
2022-11-05T18:57:22.984Z,33.30
2022-11-05T19:02:25.899Z,32.60
2022-11-05T19:07:29.935Z,39.90
2022-11-05T19:12:32.765Z,35.60
2022-11-05T19:17:35.735Z,31.20
2022-11-05T19:22:38.579Z,23.00
2022-11-05T19:27:42.759Z,20.50
2022-11-05T19:32:45.676Z,17.00
2022-11-05T19:37:50.352Z,17.30
2022-11-05T19:42:53.132Z,13.90
2022-11-05T19:47:55.910Z,15.20
2022-11-05T19:52:58.837Z,13.20
2022-11-05T19:58:01.606Z,16.20
2022-11-05T20:03:04.965Z,13.80
2022-11-05T20:08:07.794Z,13.10
2022-11-05T20:13:15.530Z,11.80
2022-11-05T20:18:21.518Z,11.20
2022-11-05T20:23:24.364Z,11.70
2022-11-05T20:28:27.761Z,15.80
2022-11-05T20:33:30.569Z,13.60
2022-11-05T20:38:33.782Z,14.50
2022-11-05T20:43:38.710Z,14.40
2022-11-05T20:48:43.299Z,18.00
2022-11-05T20:53:46.467Z,17.50
2022-11-05T20:58:49.690Z,17.40
2022-11-05T21:03:52.551Z,21.40
2022-11-05T21:08:55.428Z,23.40
2022-11-05T21:13:58.242Z,21.90
2022-11-05T21:19:01.054Z,21.30
2022-11-05T21:24:04.145Z,20.00
2022-11-05T21:29:07.873Z,24.40
2022-11-05T21:34:10.752Z,22.80
2022-11-05T21:39:14.020Z,23.00
2022-11-05T21:44:17.083Z,24.80
2022-11-05T21:49:21.499Z,23.60
2022-11-05T21:54:43.044Z,25.70
2022-11-05T21:59:49.173Z,26.10
2022-11-05T22:04:53.533Z,28.90
2022-11-05T22:09:56.474Z,25.40
2022-11-05T22:14:59.760Z,25.80
2022-11-05T22:20:03.075Z,24.70
2022-11-05T22:25:06.232Z,27.70
2022-11-05T22:30:09.792Z,28.40
2022-11-05T22:35:12.600Z,30.80
2022-11-05T22:40:15.434Z,26.80
2022-11-05T22:45:18.528Z,26.20
2022-11-05T22:50:21.389Z,22.80
2022-11-05T22:55:24.240Z,24.40
2022-11-05T23:00:36.101Z,22.40
2022-11-05T23:05:38.874Z,23.10
2022-11-05T23:11:00.531Z,24.30
2022-11-05T23:16:22.217Z,23.30
2022-11-05T23:21:43.890Z,21.70
2022-11-05T23:26:52.658Z,24.70
2022-11-05T23:32:14.155Z,24.60
2022-11-05T23:37:35.477Z,21.50
2022-11-05T23:42:57.362Z,20.10
2022-11-05T23:48:17.916Z,22.70
2022-11-05T23:53:20.774Z,23.80
2022-11-05T23:58:23.538Z,21.70
